地図

経路データ

SID SEASON NUMBER BASIN SUBBASIN NAME ISO_TIME NATURE LAT LON WMO_WIND WMO_PRES WMO_AGENCY TRACK_TYPE DIST2LAND LANDFALL IFLAG USA_AGENCY USA_ATCF_ID USA_LAT USA_LON USA_RECORD USA_STATUS USA_WIND USA_PRES USA_SSHS USA_R34_NE USA_R34_SE USA_R34_SW USA_R34_NW USA_R50_NE USA_R50_SE USA_R50_SW USA_R50_NW USA_R64_NE USA_R64_SE USA_R64_SW USA_R64_NW USA_POCI USA_ROCI USA_RMW USA_EYE TOKYO_LAT TOKYO_LON TOKYO_GRADE TOKYO_WIND TOKYO_PRES TOKYO_R50_DIR TOKYO_R50_LONG TOKYO_R50_SHORT TOKYO_R30_DIR TOKYO_R30_LONG TOKYO_R30_SHORT TOKYO_LAND CMA_LAT CMA_LON CMA_CAT CMA_WIND CMA_PRES HKO_LAT HKO_LON HKO_CAT HKO_WIND HKO_PRES NEWDELHI_LAT NEWDELHI_LON NEWDELHI_GRADE NEWDELHI_WIND NEWDELHI_PRES NEWDELHI_CI NEWDELHI_DP NEWDELHI_POCI REUNION_LAT REUNION_LON REUNION_TYPE REUNION_WIND REUNION_PRES REUNION_TNUM REUNION_CI REUNION_RMW REUNION_R34_NE REUNION_R34_SE REUNION_R34_SW REUNION_R34_NW REUNION_R50_NE REUNION_R50_SE REUNION_R50_SW REUNION_R50_NW REUNION_R64_NE REUNION_R64_SE REUNION_R64_SW REUNION_R64_NW BOM_LAT BOM_LON BOM_TYPE BOM_WIND BOM_PRES BOM_TNUM BOM_CI BOM_RMW BOM_R34_NE BOM_R34_SE BOM_R34_SW BOM_R34_NW BOM_R50_NE BOM_R50_SE BOM_R50_SW BOM_R50_NW BOM_R64_NE BOM_R64_SE BOM_R64_SW BOM_R64_NW BOM_ROCI BOM_POCI BOM_EYE BOM_POS_METHOD BOM_PRES_METHOD NADI_LAT NADI_LON NADI_CAT NADI_WIND NADI_PRES WELLINGTON_LAT WELLINGTON_LON WELLINGTON_WIND WELLINGTON_PRES DS824_LAT DS824_LON DS824_STAGE DS824_WIND DS824_PRES TD9636_LAT TD9636_LON TD9636_STAGE TD9636_WIND TD9636_PRES TD9635_LAT TD9635_LON TD9635_WIND TD9635_PRES TD9635_ROCI NEUMANN_LAT NEUMANN_LON NEUMANN_CLASS NEUMANN_WIND NEUMANN_PRES MLC_LAT MLC_LON MLC_CLASS MLC_WIND MLC_PRES USA_GUST BOM_GUST BOM_GUST_PER REUNION_GUST REUNION_GUST_PER USA_SEAHGT USA_SEARAD_NE USA_SEARAD_SE USA_SEARAD_SW USA_SEARAD_NW STORM_SPEED STORM_DIR
1941334N08087 1941 69 NI BB NOT_NAMED 1941-11-30 00:00:00 TS 7.90000 87.2000 main 593 562 _________O____ -1 7.90000 87.2000 TC 30 6 289
1941334N08087 1941 69 NI BB NOT_NAMED 1941-11-30 03:00:00 TS 7.99173 86.9267 main 562 532 _________PO___ -1 8.03760 86.7900 TC 30 7.90000 87.2000 1 7 292
1941334N08087 1941 69 NI BB NOT_NAMED 1941-11-30 06:00:00 TS 8.14820 86.5719 main 532 491 _________OP___ -1 8.20000 86.4000 TC 30 8.07051 86.8298 1 8 296
1941334N08087 1941 69 NI BB NOT_NAMED 1941-11-30 09:00:00 TS 8.33255 86.2204 main 491 462 _________PP___ -1 8.39995 86.0425 TC 30 8.24268 86.4576 1 8 298
1941334N08087 1941 69 NI BB NOT_NAMED 1941-11-30 12:00:00 TS 8.50926 85.8908 main 462 425 _________OP___ -1 8.60000 85.7000 TC 30 8.41852 86.0816 1 8 296
1941334N08087 1941 69 NI BB NOT_NAMED 1941-11-30 15:00:00 TS 8.67498 85.5250 main 425 397 _________PO___ -1 8.74997 85.3499 TC 30 8.60000 85.7000 1 8 295
1941334N08087 1941 69 NI BB NOT_NAMED 1941-11-30 18:00:00 TS 8.84361 85.1572 main 397 365 _________OP___ -1 8.90000 85.0000 TC 30 8.78721 85.3144 1 8 296
1941334N08087 1941 69 NI BB NOT_NAMED 1941-11-30 21:00:00 TS 9.04004 84.7838 main 365 346 _________PP___ -1 9.10752 84.6276 TC 30 8.97256 84.9401 1 8 298
1941334N08087 1941 69 NI BB NOT_NAMED 1941-12-01 00:00:00 TS 9.22331 84.4479 main 336 321 _________OP___ -1 9.30000 84.3000 TC 30 9.14662 84.5957 1 7 298
1941334N08087 1941 69 NI BB NOT_NAMED 1941-12-01 03:00:00 TS 9.35748 84.1850 main 326 307 _________PO___ -1 9.41495 84.0699 TC 30 9.30000 84.3000 1 5 297
1941334N08087 1941 69 NI BB NOT_NAMED 1941-12-01 06:00:00 TS 9.45458 83.9893 main 311 291 _________OP___ -1 9.50000 83.9000 TC 30 9.40916 84.0785 1 4 298
1941334N08087 1941 69 NI BB NOT_NAMED 1941-12-01 09:00:00 TS 9.54610 83.8273 main 291 286 _________PP___ -1 9.59247 83.7500 TC 30 9.49973 83.9047 1 4 302
1941334N08087 1941 69 NI BB NOT_NAMED 1941-12-01 12:00:00 TS 9.64522 83.6768 main 286 272 _________OP___ -1 9.70000 83.6000 TC 30 9.59045 83.7535 1 4 305
1941334N08087 1941 69 NI BB NOT_NAMED 1941-12-01 15:00:00 TS 9.76750 83.5037 main 279 266 _________PO___ -1 9.83500 83.4075 TC 31 9.70000 83.6000 1 5 306
1941334N08087 1941 69 NI BB NOT_NAMED 1941-12-01 18:00:00 TS 9.91451 83.3076 main 266 254 _________OP___ -1 10.0000 83.2000 TC 32 9.82902 83.4151 1 5 309
1941334N08087 1941 69 NI BB NOT_NAMED 1941-12-01 21:00:00 TS 10.0762 83.1148 main 260 251 _________PP___ -1 10.1700 83.0074 TC 33 9.98243 83.2222 1 5 313
1941334N08087 1941 69 NI BB NOT_NAMED 1941-12-02 00:00:00 TS 10.2848 82.9091 main 256 247 _________OP___ -1 10.4000 82.8000 TC 34 10.1696 83.0182 1 7 319
1941334N08087 1941 69 NI BB NOT_NAMED 1941-12-02 03:00:00 TS 10.5675 82.6788 main 254 245 _________PO___ -1 10.7350 82.5575 TC 41 10.4000 82.8000 2 8 327
1941334N08087 1941 69 NI BB NOT_NAMED 1941-12-02 06:00:00 TS 10.9230 82.4810 main 258 258 _________OP___ -1 11.1000 82.3000 TC 49 10.7459 82.6620 2 8 334
1941334N08087 1941 69 NI BB NOT_NAMED 1941-12-02 09:00:00 TS 11.2877 82.3176 main 262 220 _________PP___ -1 11.4520 82.1399 TC 56 11.1233 82.4953 2 8 325
1941334N08087 1941 69 NI BB NOT_NAMED 1941-12-02 12:00:00 TS 11.5821 82.0155 main 220 167 _________OP___ -1 11.7000 81.8000 TC 64 11.4641 82.2310 2 10 297
1941334N08087 1941 69 NI BB NOT_NAMED 1941-12-02 15:00:00 TS 11.7339 81.4200 main 158 83 _________PO___ -1 11.7678 81.0400 TC 55 11.7000 81.8000 4 14 275
1941334N08087 1941 69 NI BB NOT_NAMED 1941-12-02 18:00:00 TS 11.7149 80.5863 main 83 0 _________OP___ -1 11.7000 80.1000 TC 47 11.7298 81.0727 4 17 265
1941334N08087 1941 69 NI BB NOT_NAMED 1941-12-02 21:00:00 TS 11.6002 79.6965 main 0 0 _________PP___ -1 11.5501 79.2047 TC 38 11.6503 80.1882 4 17 262
1941334N08087 1941 69 NI BB NOT_NAMED 1941-12-03 00:00:00 TS 11.4602 78.8299 main 0 0 _________OP___ -1 11.4000 78.4000 TC 30 11.5203 79.2599 4 16 262
1941334N08087 1941 69 NI BB NOT_NAMED 1941-12-03 03:00:00 TS 11.3885 78.1026 main 0 0 _________PO___ -1 11.3771 77.8052 TC 30 11.4000 78.4000 1 13 267
1941334N08087 1941 69 NI AS NOT_NAMED 1941-12-03 06:00:00 TS 11.3844 77.5402 main 0 0 _________OP___ -1 11.4000 77.3000 TC 30 11.3688 77.7803 1 11 269
1941334N08087 1941 69 NI AS NOT_NAMED 1941-12-03 09:00:00 TS 11.3764 77.0026 main 0 0 _________PP___ -1 11.3923 76.7649 TC 30 11.3606 77.2403 1 11 270
1941334N08087 1941 69 NI AS NOT_NAMED 1941-12-03 12:00:00 TS 11.3861 76.4651 main 0 0 _________OP___ -1 11.4000 76.2000 TC 30 11.3721 76.7302 1 11 272
1941334N08087 1941 69 NI AS NOT_NAMED 1941-12-03 15:00:00 TS 11.4212 75.8825 main 0 0 _________PO___ -1 11.4425 75.5650 TC 30 11.4000 76.2000 1 12 274
1941334N08087 1941 69 NI AS NOT_NAMED 1941-12-03 18:00:00 TS 11.4679 75.2293 main 39 39 _________OP___ -1 11.5000 74.9000 TC 30 11.4358 75.5586 1 13 274
1941334N08087 1941 69 NI AS NOT_NAMED 1941-12-03 21:00:00 TS 11.5176 74.5638 main 86 86 _________PP___ -1 11.5500 74.2350 TC 30 11.4853 74.8927 1 13 275
1941334N08087 1941 69 NI AS NOT_NAMED 1941-12-04 00:00:00 TS 11.5710 73.9152 main 146 146 _________OP___ -1 11.6000 73.6000 TC 30 11.5421 74.2304 1 12 275
1941334N08087 1941 69 NI AS NOT_NAMED 1941-12-04 03:00:00 TS 11.6249 73.3137 main 205 205 _________PO___ -1 11.6498 73.0275 TC 30 11.6000 73.6000 1 11 275
1941334N08087 1941 69 NI AS NOT_NAMED 1941-12-04 06:00:00 TS 11.6706 72.7715 main 249 249 _________OP___ -1 11.7000 72.5000 TC 30 11.6412 73.0430 1 10 275
1941334N08087 1941 69 NI AS NOT_NAMED 1941-12-04 09:00:00 TS 11.7132 72.2598 main 298 298 _________PP___ -1 11.7423 71.9999 TC 30 11.6841 72.5198 1 10 276
1941334N08087 1941 69 NI AS NOT_NAMED 1941-12-04 12:00:00 TS 11.7675 71.7558 main 344 344 _________OP___ -1 11.8000 71.5000 TC 30 11.7350 72.0117 1 10 278
1941334N08087 1941 69 NI AS NOT_NAMED 1941-12-04 15:00:00 TS 11.8462 71.2288 main 407 404 _________PO___ -1 11.8924 70.9575 TC 30 11.8000 71.5000 1 11 280
1941334N08087 1941 69 NI AS NOT_NAMED 1941-12-04 18:00:00 TS 11.9509 70.6747 main 454 454 _________OP___ -1 12.0000 70.4000 TC 30 11.9017 70.9494 1 11 281
1941334N08087 1941 69 NI AS NOT_NAMED 1941-12-04 21:00:00 TS 12.0649 70.1177 main 516 516 _________PP___ -1 12.1149 69.8426 TC 30 12.0148 70.3929 1 11 281
1941334N08087 1941 69 NI AS NOT_NAMED 1941-12-05 00:00:00 TS 12.1602 69.5700 main 566 566 _________OP___ -1 12.2000 69.3000 TC 30 12.1205 69.8400 1 11 278
1941334N08087 1941 69 NI AS NOT_NAMED 1941-12-05 03:00:00 TS 12.2074 69.0462 main 621 621 _________PO___ -1 12.2149 68.7924 TC 30 12.2000 69.3000 1 10 273
1941334N08087 1941 69 NI AS NOT_NAMED 1941-12-05 06:00:00 TS 12.2162 68.5427 main 667 667 _________OP___ -1 12.2000 68.3000 TC 30 12.2324 68.7854 1 10 271
1941334N08087 1941 69 NI AS NOT_NAMED 1941-12-05 09:00:00 TS 12.2184 68.0424 main 715 715 _________PP___ -1 12.1999 67.8000 TC 30 12.2370 68.2848 1 10 270
1941334N08087 1941 69 NI AS NOT_NAMED 1941-12-05 12:00:00 TS 12.2115 67.5459 main 764 764 _________OP___ -1 12.2000 67.3000 TC 30 12.2231 67.7917 1 10 269
1941334N08087 1941 69 NI AS NOT_NAMED 1941-12-05 15:00:00 TS 12.2037 67.0500 main 803 803 _________PO___ -1 12.2074 66.8000 TC 30 12.2000 67.3000 1 9 268
1941334N08087 1941 69 NI AS NOT_NAMED 1941-12-05 18:00:00 TS 12.1860 66.5883 main 853 853 _________OP___ -1 12.2000 66.3000 TC 30 12.1755 66.8045 1 9 267
1941334N08087 1941 69 NI AS NOT_NAMED 1941-12-05 21:00:00 TS 12.1546 66.1030 main 903 903 _________PP___ -1 12.1602 65.7999 TC 30 12.1508 66.3051 1 9 266
1941334N08087 1941 69 NI AS NOT_NAMED 1941-12-06 00:00:00 TS 12.1172 65.6354 main 958 958 _________OP___ -1 12.1000 65.3000 TC 30 12.1257 65.8031 1 8 266
1941334N08087 1941 69 NI AS NOT_NAMED 1941-12-06 03:00:00 NR 12.1000 65.3000 main 988 __________O___ -1 TC 12.1000 65.3000 1 7 267

IBTrACS Databaseについて

本データベースは、米国NOAAが公開する1842年以降の世界の熱帯低気圧のベストトラックデータアーカイブInternational Best Track Archive for Climate Stewardship (IBTrACS)を、ウェブで閲覧しやすい形式に変換したものです。

最終更新日:2021-10-19